createdAt,value
2023-02-27T00:01:21.330Z,88.49
2023-02-27T00:03:49.034Z,88.42
2023-02-27T00:06:17.348Z,88.52
2023-02-27T00:08:44.323Z,88.61
2023-02-27T00:11:11.495Z,88.54
2023-02-27T00:13:38.609Z,88.44
2023-02-27T00:16:06.662Z,88.57
2023-02-27T00:18:33.919Z,88.62
2023-02-27T00:21:00.946Z,88.69
2023-02-27T00:23:28.138Z,88.62
2023-02-27T00:25:55.213Z,88.61
2023-02-27T00:28:23.062Z,88.82
2023-02-27T00:30:50.144Z,88.71
2023-02-27T00:33:17.909Z,88.65
2023-02-27T00:35:44.943Z,88.65
2023-02-27T00:38:12.054Z,88.77
2023-02-27T00:40:39.348Z,88.70
2023-02-27T00:43:06.369Z,88.65
2023-02-27T00:45:33.503Z,88.80
2023-02-27T00:48:01.246Z,88.73
2023-02-27T00:50:28.280Z,88.75
2023-02-27T00:52:55.400Z,88.77
2023-02-27T00:55:22.480Z,88.72
2023-02-27T00:57:49.614Z,88.73
2023-02-27T01:00:17.011Z,88.54
2023-02-27T01:02:44.118Z,88.69
2023-02-27T01:05:11.706Z,88.87
2023-02-27T01:07:38.875Z,88.95
2023-02-27T01:10:08.239Z,89.01
2023-02-27T01:12:40.670Z,89.03
2023-02-27T01:15:09.459Z,89.10
2023-02-27T01:17:36.647Z,89.22
2023-02-27T01:20:06.360Z,89.22
2023-02-27T01:22:33.752Z,89.03
2023-02-27T01:25:01.027Z,88.88
2023-02-27T01:27:28.089Z,88.76
2023-02-27T01:29:55.170Z,88.63
2023-02-27T01:32:23.862Z,88.59
2023-02-27T01:34:50.962Z,88.46
2023-02-27T01:37:18.793Z,88.59
2023-02-27T01:39:45.853Z,88.55
2023-02-27T01:42:25.490Z,88.71
2023-02-27T01:45:09.640Z,88.79
2023-02-27T01:47:42.626Z,88.83
2023-02-27T01:50:11.229Z,88.88
2023-02-27T01:52:40.497Z,88.96
2023-02-27T01:55:12.088Z,88.97
2023-02-27T01:57:42.301Z,89.08
2023-02-27T02:00:10.104Z,89.07
2023-02-27T02:02:44.276Z,89.22
2023-02-27T02:05:15.164Z,89.38
2023-02-27T02:07:45.201Z,89.33
2023-02-27T02:10:15.936Z,89.55
2023-02-27T02:12:46.526Z,89.72
2023-02-27T02:15:14.517Z,89.87
2023-02-27T02:18:11.501Z,89.95
2023-02-27T02:20:48.087Z,90.14
2023-02-27T02:23:36.802Z,90.14
2023-02-27T02:26:33.591Z,90.27
2023-02-27T02:29:10.836Z,90.34
2023-02-27T02:32:13.377Z,90.33
2023-02-27T02:35:03.229Z,90.31
2023-02-27T02:37:47.345Z,90.48
2023-02-27T02:40:37.812Z,90.52
2023-02-27T02:43:12.009Z,90.50
2023-02-27T02:46:17.446Z,90.52
2023-02-27T02:49:02.758Z,90.50
2023-02-27T02:51:39.004Z,90.51
2023-02-27T02:54:52.973Z,90.53
2023-02-27T02:57:30.064Z,90.55
2023-02-27T03:00:10.232Z,90.60
2023-02-27T03:03:00.681Z,90.73
2023-02-27T03:05:39.639Z,90.84
2023-02-27T03:08:22.036Z,90.72
2023-02-27T03:11:03.316Z,90.71
2023-02-27T03:13:44.544Z,90.74
2023-02-27T03:16:37.014Z,90.82
2023-02-27T03:19:18.813Z,90.81
2023-02-27T03:21:49.236Z,90.67
2023-02-27T03:24:28.256Z,90.77
2023-02-27T03:27:02.381Z,90.74
2023-02-27T03:29:42.578Z,90.60
2023-02-27T03:32:22.559Z,90.70
2023-02-27T03:34:51.230Z,90.64
2023-02-27T03:37:58.615Z,90.70
2023-02-27T03:40:43.997Z,90.63
2023-02-27T03:43:45.389Z,90.79
2023-02-27T03:46:16.984Z,90.60
2023-02-27T03:48:46.393Z,90.70
2023-02-27T03:51:28.103Z,90.61
2023-02-27T03:54:10.858Z,90.62
2023-02-27T03:56:47.305Z,90.57
2023-02-27T03:59:15.521Z,90.52
2023-02-27T04:01:46.217Z,90.47
2023-02-27T04:04:17.014Z,90.69
2023-02-27T04:07:24.080Z,90.55
2023-02-27T04:09:57.307Z,90.61
2023-02-27T04:13:06.085Z,90.58
2023-02-27T04:15:55.197Z,90.57
2023-02-27T04:18:55.751Z,90.59
2023-02-27T04:21:29.872Z,90.57
2023-02-27T04:24:29.539Z,90.56
2023-02-27T04:27:30.270Z,90.48
2023-02-27T04:30:13.445Z,90.61
2023-02-27T04:32:52.828Z,90.55
2023-02-27T04:35:48.332Z,90.58
2023-02-27T04:38:26.258Z,90.65
2023-02-27T04:41:12.635Z,90.56
2023-02-27T04:43:43.744Z,90.52
2023-02-27T04:46:15.096Z,90.63
2023-02-27T04:48:49.158Z,90.55
2023-02-27T04:51:22.943Z,90.55
2023-02-27T04:54:15.286Z,90.62
2023-02-27T04:56:52.269Z,90.68
2023-02-27T04:59:30.620Z,90.71
2023-02-27T05:02:04.207Z,90.66
2023-02-27T05:04:36.777Z,90.61
2023-02-27T05:07:09.005Z,90.66
2023-02-27T05:09:51.978Z,90.67
2023-02-27T05:12:18.944Z,90.63
2023-02-27T05:15:09.615Z,90.63
2023-02-27T05:17:45.675Z,90.48
2023-02-27T05:20:15.228Z,90.57
2023-02-27T05:22:48.720Z,90.65
2023-02-27T05:25:33.122Z,90.60
2023-02-27T05:28:24.008Z,90.62
2023-02-27T05:31:18.137Z,90.76
2023-02-27T05:34:20.077Z,90.62
2023-02-27T05:36:59.384Z,90.64
2023-02-27T05:39:30.014Z,90.65
2023-02-27T05:42:28.057Z,90.66
2023-02-27T05:45:23.290Z,90.60
2023-02-27T05:49:16.708Z,90.56
2023-02-27T05:52:39.902Z,90.64
2023-02-27T05:55:42.628Z,90.57
2023-02-27T05:59:03.352Z,90.62
2023-02-27T06:02:06.256Z,90.55
2023-02-27T06:13:16.944Z,90.38
2023-02-27T06:15:52.199Z,90.25
2023-02-27T06:19:21.250Z,90.23
2023-02-27T06:22:07.949Z,89.86
2023-02-27T06:25:21.196Z,89.81
2023-02-27T06:29:43.843Z,89.65
2023-02-27T06:33:20.287Z,89.61
2023-02-27T06:37:36.449Z,89.75
2023-02-27T06:41:44.312Z,89.58
2023-02-27T06:45:59.849Z,89.37
2023-02-27T06:50:34.831Z,89.31
2023-02-27T06:55:31.293Z,89.25
2023-02-27T07:00:34.333Z,89.00
2023-02-27T07:09:28.349Z,88.18
2023-02-27T07:13:53.229Z,88.23
2023-02-27T07:17:55.376Z,88.14
2023-02-27T07:21:33.705Z,87.80
2023-02-27T07:24:50.285Z,87.43
2023-02-27T07:27:42.205Z,87.04
2023-02-27T07:30:36.246Z,86.87
2023-02-27T07:33:07.142Z,86.72
2023-02-27T07:36:16.428Z,86.19
2023-02-27T07:39:43.098Z,85.92
2023-02-27T07:42:19.171Z,85.60
2023-02-27T07:44:52.157Z,85.01
2023-02-27T07:47:38.909Z,84.96
2023-02-27T07:50:29.486Z,84.87
2023-02-27T07:53:39.700Z,85.07
2023-02-27T07:57:07.528Z,85.34
2023-02-27T08:00:56.291Z,85.42
2023-02-27T08:04:04.883Z,85.11
2023-02-27T08:07:19.124Z,84.47
2023-02-27T08:10:38.309Z,84.16
2023-02-27T08:13:59.122Z,84.30
2023-02-27T08:17:23.586Z,83.70
2023-02-27T08:20:38.429Z,82.59
2023-02-27T08:24:29.800Z,82.33
2023-02-27T08:28:22.322Z,82.72
2023-02-27T08:34:11.346Z,80.90
2023-02-27T08:37:06.273Z,80.96
2023-02-27T08:40:57.205Z,80.15
2023-02-27T08:43:45.310Z,78.35
2023-02-27T08:46:39.908Z,78.12
2023-02-27T08:49:25.914Z,78.28
2023-02-27T08:52:02.459Z,78.71
2023-02-27T08:54:34.628Z,79.21
2023-02-27T08:57:07.249Z,79.57
2023-02-27T08:59:39.396Z,79.95
2023-02-27T09:02:11.667Z,79.69
2023-02-27T09:04:46.085Z,79.92
2023-02-27T09:07:22.132Z,80.13
2023-02-27T09:09:52.101Z,80.01
2023-02-27T09:12:21.542Z,79.93
2023-02-27T09:14:50.317Z,80.03
2023-02-27T09:17:20.709Z,79.83
2023-02-27T09:19:49.578Z,79.74
2023-02-27T09:22:21.244Z,80.08
2023-02-27T09:24:49.722Z,80.39
2023-02-27T09:27:18.363Z,79.78
2023-02-27T09:29:49.025Z,80.13
2023-02-27T09:32:17.655Z,80.66
2023-02-27T09:34:46.809Z,80.32
2023-02-27T09:37:16.255Z,79.73
2023-02-27T09:39:46.401Z,79.49
2023-02-27T09:42:25.132Z,79.88
2023-02-27T09:44:59.225Z,78.76
2023-02-27T09:47:50.702Z,78.42
2023-02-27T09:50:41.313Z,79.52
2023-02-27T09:53:19.709Z,78.49
2023-02-27T09:55:55.052Z,77.05
2023-02-27T09:59:06.262Z,76.43
2023-02-27T10:01:44.148Z,76.29
2023-02-27T10:04:43.568Z,76.35
2023-02-27T10:07:27.362Z,77.46
2023-02-27T10:10:23.420Z,75.83
2023-02-27T10:13:28.574Z,75.86
2023-02-27T10:15:58.354Z,76.72
2023-02-27T10:18:55.994Z,76.39
2023-02-27T10:21:37.596Z,77.26
2023-02-27T10:24:27.777Z,77.26
2023-02-27T10:26:59.240Z,77.47
2023-02-27T10:29:32.545Z,77.20
2023-02-27T10:32:05.921Z,77.04
2023-02-27T10:34:36.482Z,76.99
2023-02-27T10:37:07.091Z,76.89
2023-02-27T10:39:56.038Z,76.45
2023-02-27T10:42:33.341Z,76.75
2023-02-27T10:45:03.649Z,77.06
2023-02-27T10:47:32.544Z,76.97
2023-02-27T10:50:01.005Z,76.58
2023-02-27T10:52:29.442Z,76.50
2023-02-27T10:55:27.113Z,76.92
2023-02-27T10:58:03.205Z,76.29
2023-02-27T11:00:45.291Z,76.47
2023-02-27T11:03:22.360Z,76.95
2023-02-27T11:06:02.089Z,77.74
2023-02-27T11:08:34.105Z,78.02
2023-02-27T11:11:04.348Z,78.38
2023-02-27T11:13:35.823Z,79.18
2023-02-27T11:16:10.351Z,79.02
2023-02-27T11:18:47.227Z,78.56
2023-02-27T11:21:34.819Z,78.57
2023-02-27T11:24:19.475Z,78.70
2023-02-27T11:27:04.566Z,78.04
2023-02-27T11:29:34.825Z,77.64
2023-02-27T11:32:14.131Z,77.37
2023-02-27T11:34:51.994Z,76.75
2023-02-27T11:37:31.547Z,77.45
2023-02-27T11:40:21.448Z,77.57
2023-02-27T11:42:57.986Z,77.71
2023-02-27T11:46:04.970Z,77.58
2023-02-27T11:48:48.117Z,76.05
2023-02-27T11:51:55.733Z,74.51
2023-02-27T11:54:34.870Z,74.37
2023-02-27T11:57:20.896Z,73.81
2023-02-27T11:59:56.820Z,73.92
2023-02-27T12:02:59.862Z,74.30
2023-02-27T12:05:33.392Z,74.05
2023-02-27T12:08:07.755Z,74.33
2023-02-27T12:11:14.308Z,73.45
2023-02-27T12:14:06.557Z,73.36
2023-02-27T12:16:42.709Z,74.11
2023-02-27T12:19:18.742Z,74.66
2023-02-27T12:21:56.948Z,73.93
2023-02-27T12:25:11.256Z,73.89
2023-02-27T12:27:54.302Z,73.80
2023-02-27T12:30:27.300Z,73.81
2023-02-27T12:33:11.946Z,73.07
2023-02-27T12:35:44.687Z,72.85
2023-02-27T12:38:15.470Z,72.44
2023-02-27T12:40:51.986Z,72.69
2023-02-27T12:43:41.557Z,73.00
2023-02-27T12:46:38.743Z,74.07
2023-02-27T12:49:29.675Z,73.24
2023-02-27T12:52:33.121Z,73.40
2023-02-27T12:55:18.924Z,74.21
2023-02-27T12:58:13.002Z,74.50
2023-02-27T13:01:01.147Z,74.88
2023-02-27T13:03:41.848Z,75.46
2023-02-27T13:06:30.184Z,75.30
2023-02-27T13:09:35.585Z,75.46
2023-02-27T13:12:31.442Z,75.71
2023-02-27T13:15:05.592Z,75.35
2023-02-27T13:17:44.187Z,74.61
2023-02-27T13:20:30.796Z,74.56
2023-02-27T13:23:25.382Z,73.37
2023-02-27T13:25:56.385Z,73.99
2023-02-27T13:28:28.515Z,73.49
2023-02-27T13:31:15.479Z,73.66
2023-02-27T13:33:54.682Z,74.25
2023-02-27T13:36:33.623Z,73.96
2023-02-27T13:39:03.077Z,74.04
2023-02-27T13:41:42.078Z,74.14
2023-02-27T13:44:36.064Z,74.27
2023-02-27T13:47:29.547Z,74.53
2023-02-27T13:50:00.462Z,74.47
2023-02-27T13:52:38.911Z,74.52
2023-02-27T13:55:26.349Z,74.82
2023-02-27T13:57:57.555Z,74.50
2023-02-27T14:00:35.145Z,74.35
2023-02-27T14:03:20.770Z,74.79
2023-02-27T14:05:53.417Z,74.82
2023-02-27T14:08:34.411Z,74.60
2023-02-27T14:11:25.209Z,74.38
2023-02-27T14:13:58.454Z,73.81
2023-02-27T14:16:44.358Z,73.98
2023-02-27T14:19:15.901Z,74.09
2023-02-27T14:21:53.452Z,74.13
2023-02-27T14:25:01.104Z,74.15
2023-02-27T14:27:44.711Z,74.17
2023-02-27T14:30:29.597Z,74.14
2023-02-27T14:33:08.114Z,74.26
2023-02-27T14:35:37.053Z,73.60
2023-02-27T14:38:11.586Z,73.96
2023-02-27T14:41:20.879Z,73.96
2023-02-27T14:43:57.771Z,73.34
2023-02-27T14:46:44.534Z,73.21
2023-02-27T14:49:30.382Z,72.77
2023-02-27T14:52:22.439Z,73.01
2023-02-27T14:54:52.118Z,72.53
2023-02-27T14:57:27.044Z,72.38
2023-02-27T14:59:55.705Z,72.60
2023-02-27T15:02:36.178Z,71.91
2023-02-27T15:05:16.509Z,71.77
2023-02-27T15:07:49.124Z,72.00
2023-02-27T15:10:25.263Z,71.87
2023-02-27T15:12:53.748Z,72.06
2023-02-27T15:15:22.673Z,72.65
2023-02-27T15:17:53.980Z,72.96
2023-02-27T15:20:34.105Z,72.97
2023-02-27T15:23:29.069Z,73.28
2023-02-27T15:25:59.970Z,73.74
2023-02-27T15:28:37.736Z,73.05
2023-02-27T15:31:10.215Z,72.34
2023-02-27T15:33:39.437Z,72.47
2023-02-27T15:36:08.144Z,72.38
2023-02-27T15:38:38.261Z,72.67
2023-02-27T15:41:18.655Z,72.94
2023-02-27T15:43:47.176Z,72.96
2023-02-27T15:46:16.335Z,73.07
2023-02-27T15:48:49.908Z,73.16
2023-02-27T15:51:18.316Z,74.00
2023-02-27T15:53:54.981Z,74.04
2023-02-27T15:56:33.199Z,74.52
2023-02-27T15:59:02.202Z,74.55
2023-02-27T16:01:32.768Z,74.73
2023-02-27T16:04:06.645Z,74.52
2023-02-27T16:06:40.311Z,74.85
2023-02-27T16:09:26.232Z,75.09
2023-02-27T16:12:21.147Z,75.45
2023-02-27T16:14:56.063Z,75.95
2023-02-27T16:17:31.674Z,76.17
2023-02-27T16:20:04.457Z,75.78
2023-02-27T16:22:33.939Z,75.68
2023-02-27T16:25:11.313Z,76.14
2023-02-27T16:27:40.105Z,76.32
2023-02-27T16:30:13.113Z,76.31
2023-02-27T16:32:46.831Z,76.58
2023-02-27T16:35:23.768Z,76.74
2023-02-27T16:37:53.633Z,77.07
2023-02-27T16:40:25.025Z,77.07
2023-02-27T16:42:53.989Z,76.94
2023-02-27T16:45:24.955Z,76.58
2023-02-27T16:47:56.420Z,76.61
2023-02-27T16:50:35.345Z,76.48
2023-02-27T16:53:04.064Z,76.62
2023-02-27T16:55:33.736Z,76.50
2023-02-27T16:58:02.395Z,76.06
2023-02-27T17:00:30.896Z,76.13
2023-02-27T17:02:59.344Z,76.37
2023-02-27T17:05:27.812Z,76.45
2023-02-27T17:07:58.682Z,76.43
2023-02-27T17:10:34.071Z,76.60
2023-02-27T17:13:02.419Z,76.46
2023-02-27T17:15:30.804Z,76.72
2023-02-27T17:17:59.199Z,76.87
2023-02-27T17:20:30.363Z,76.52
2023-02-27T17:22:59.025Z,76.77
2023-02-27T17:25:28.309Z,77.08
2023-02-27T17:27:56.695Z,77.24
2023-02-27T17:30:25.259Z,77.08
2023-02-27T17:32:53.798Z,77.32
2023-02-27T17:35:22.276Z,77.39
2023-02-27T17:37:53.088Z,77.32
2023-02-27T17:40:23.813Z,77.23
2023-02-27T17:42:52.158Z,76.84
2023-02-27T17:45:21.534Z,77.00
2023-02-27T17:47:50.697Z,77.03
2023-02-27T17:50:19.245Z,77.25
2023-02-27T17:52:47.603Z,77.28
2023-02-27T17:55:17.146Z,77.45
2023-02-27T17:57:45.556Z,77.31
2023-02-27T18:00:15.475Z,77.09
2023-02-27T18:02:45.604Z,77.04
2023-02-27T18:05:15.388Z,76.82
2023-02-27T18:07:43.754Z,76.54
2023-02-27T18:10:14.208Z,77.08
2023-02-27T18:12:43.343Z,77.08
2023-02-27T18:15:11.835Z,76.81
2023-02-27T18:17:40.393Z,76.69
2023-02-27T18:20:10.283Z,76.92
2023-02-27T18:22:38.737Z,76.58
2023-02-27T18:25:07.566Z,76.42
2023-02-27T18:27:36.042Z,76.27
2023-02-27T18:30:05.128Z,76.12
2023-02-27T18:32:33.592Z,76.26
2023-02-27T18:35:02.152Z,76.43
2023-02-27T18:37:30.537Z,76.74
2023-02-27T18:39:58.920Z,76.79
2023-02-27T18:42:27.478Z,76.62
2023-02-27T18:44:55.891Z,76.54
2023-02-27T18:47:24.291Z,76.34
2023-02-27T18:49:52.694Z,76.00
2023-02-27T18:52:21.138Z,75.98
2023-02-27T18:54:49.532Z,75.81
2023-02-27T18:57:18.448Z,75.68
2023-02-27T18:59:47.663Z,75.92
2023-02-27T19:02:19.864Z,76.29
2023-02-27T19:04:49.159Z,76.38
2023-02-27T19:07:18.990Z,76.39
2023-02-27T19:09:47.518Z,76.23
2023-02-27T19:12:15.936Z,76.12
2023-02-27T19:14:44.423Z,75.78
2023-02-27T19:17:13.969Z,75.72
2023-02-27T19:19:42.521Z,75.78
2023-02-27T19:22:11.025Z,75.80
2023-02-27T19:24:39.428Z,75.97
2023-02-27T19:27:07.842Z,76.06
2023-02-27T19:29:36.334Z,76.22
2023-02-27T19:32:07.734Z,76.11
2023-02-27T19:34:38.320Z,75.92
2023-02-27T19:37:07.925Z,75.92
2023-02-27T19:39:36.311Z,75.98
2023-02-27T19:42:04.850Z,75.99
2023-02-27T19:44:33.246Z,76.09
2023-02-27T19:47:01.821Z,75.82
2023-02-27T19:49:30.316Z,76.01
2023-02-27T19:51:58.699Z,76.02
2023-02-27T19:54:27.121Z,75.92
2023-02-27T19:56:55.600Z,75.98
2023-02-27T19:59:24.901Z,76.22
2023-02-27T20:01:53.608Z,76.08
2023-02-27T20:04:22.291Z,76.16
2023-02-27T20:06:53.821Z,76.01
2023-02-27T20:09:23.980Z,76.15
2023-02-27T20:11:56.910Z,76.20
2023-02-27T20:14:25.385Z,76.09
2023-02-27T20:16:54.521Z,76.03
2023-02-27T20:19:24.413Z,75.94
2023-02-27T20:21:54.367Z,75.97
2023-02-27T20:24:24.715Z,76.11
2023-02-27T20:26:54.426Z,76.19
2023-02-27T20:29:24.727Z,76.13
2023-02-27T20:31:54.194Z,76.10
2023-02-27T20:34:26.630Z,76.03
2023-02-27T20:36:57.886Z,76.29
2023-02-27T20:39:28.122Z,76.31
2023-02-27T20:41:56.538Z,76.44
2023-02-27T20:44:24.934Z,76.27
2023-02-27T20:46:53.312Z,76.17
2023-02-27T20:49:23.590Z,76.24
2023-02-27T20:51:52.964Z,76.28
2023-02-27T20:54:21.553Z,75.99
2023-02-27T20:56:54.681Z,76.15
2023-02-27T20:59:25.535Z,76.24
2023-02-27T21:01:55.117Z,76.49
2023-02-27T21:04:43.154Z,76.58
2023-02-27T21:07:14.606Z,76.41
2023-02-27T21:09:43.791Z,76.39
2023-02-27T21:12:12.677Z,76.33
2023-02-27T21:14:44.330Z,76.03
2023-02-27T21:17:14.237Z,76.20
2023-02-27T21:19:42.737Z,76.17
2023-02-27T21:22:11.856Z,76.16
2023-02-27T21:24:40.297Z,76.20
2023-02-27T21:27:08.779Z,76.18
2023-02-27T21:29:37.276Z,76.31
2023-02-27T21:32:07.747Z,76.28
2023-02-27T21:34:36.385Z,76.32
2023-02-27T21:37:07.457Z,76.21
2023-02-27T21:39:35.949Z,76.28
2023-02-27T21:42:05.049Z,76.33
2023-02-27T21:44:33.417Z,76.21
2023-02-27T21:47:10.311Z,76.34
2023-02-27T21:49:39.542Z,76.37
2023-02-27T21:52:08.204Z,76.31
2023-02-27T21:54:36.677Z,76.24
2023-02-27T21:57:05.581Z,76.20
2023-02-27T21:59:34.448Z,76.34
2023-02-27T22:02:02.875Z,76.11
2023-02-27T22:04:31.399Z,76.26
2023-02-27T22:06:59.835Z,76.45
2023-02-27T22:09:28.220Z,76.08
2023-02-27T22:11:56.668Z,76.17
2023-02-27T22:14:26.397Z,76.36
2023-02-27T22:16:54.894Z,76.18
2023-02-27T22:19:23.558Z,76.34
2023-02-27T22:21:51.959Z,76.21
2023-02-27T22:24:20.766Z,76.28
2023-02-27T22:26:50.613Z,76.32
2023-02-27T22:29:19.080Z,76.30
2023-02-27T22:31:47.585Z,76.25
2023-02-27T22:34:18.796Z,76.36
2023-02-27T22:36:48.922Z,76.36
2023-02-27T22:39:17.317Z,76.34
2023-02-27T22:41:46.395Z,76.47
2023-02-27T22:44:16.683Z,76.37
2023-02-27T22:46:48.150Z,76.27
2023-02-27T22:49:22.181Z,76.36
2023-02-27T22:51:52.286Z,76.28
2023-02-27T22:54:22.667Z,76.38
2023-02-27T22:56:53.071Z,76.48
2023-02-27T22:59:22.476Z,76.70
2023-02-27T23:01:52.430Z,76.73
2023-02-27T23:04:22.461Z,76.82
2023-02-27T23:06:52.776Z,77.04
2023-02-27T23:09:27.467Z,76.90
2023-02-27T23:11:56.489Z,76.88
2023-02-27T23:14:24.911Z,76.80
2023-02-27T23:16:54.816Z,76.73
2023-02-27T23:19:23.369Z,76.82
2023-02-27T23:21:51.840Z,76.82
2023-02-27T23:24:20.734Z,76.78
2023-02-27T23:26:51.618Z,76.79
2023-02-27T23:29:20.445Z,76.94
2023-02-27T23:31:49.016Z,76.99
2023-02-27T23:34:17.376Z,77.05
2023-02-27T23:36:45.640Z,76.99
2023-02-27T23:39:14.016Z,77.11
2023-02-27T23:41:42.701Z,77.38
2023-02-27T23:44:11.081Z,77.14
2023-02-27T23:46:39.837Z,77.33
2023-02-27T23:49:09.097Z,77.22
2023-02-27T23:51:37.545Z,77.36
2023-02-27T23:54:06.136Z,77.32
2023-02-27T23:56:34.516Z,76.96
2023-02-27T23:59:05.970Z,76.91
